sensor_id;sensor_type;location;lat;lon;timestamp;temperature;humidity
35541;DHT22;21650;48.840;9.162;2023-11-19T00:02:20;8.00;99.90
35541;DHT22;21650;48.840;9.162;2023-11-19T00:04:46;8.00;99.90
35541;DHT22;21650;48.840;9.162;2023-11-19T00:07:11;8.00;99.90
35541;DHT22;21650;48.840;9.162;2023-11-19T00:09:39;8.10;99.90
35541;DHT22;21650;48.840;9.162;2023-11-19T00:12:05;8.00;99.90
35541;DHT22;21650;48.840;9.162;2023-11-19T00:14:31;8.00;99.90
35541;DHT22;21650;48.840;9.162;2023-11-19T00:16:57;8.10;99.90
35541;DHT22;21650;48.840;9.162;2023-11-19T00:19:22;8.10;99.90
35541;DHT22;21650;48.840;9.162;2023-11-19T00:21:48;8.10;99.90
35541;DHT22;21650;48.840;9.162;2023-11-19T00:24:13;8.10;99.90
35541;DHT22;21650;48.840;9.162;2023-11-19T00:26:42;8.20;99.90
35541;DHT22;21650;48.840;9.162;2023-11-19T00:29:07;8.20;99.90
35541;DHT22;21650;48.840;9.162;2023-11-19T00:31:33;8.20;99.90
35541;DHT22;21650;48.840;9.162;2023-11-19T00:33:59;8.30;99.90
35541;DHT22;21650;48.840;9.162;2023-11-19T00:36:25;8.30;99.90
35541;DHT22;21650;48.840;9.162;2023-11-19T00:38:51;8.40;99.90
35541;DHT22;21650;48.840;9.162;2023-11-19T00:41:18;8.40;99.90
35541;DHT22;21650;48.840;9.162;2023-11-19T00:43:44;8.40;99.90
35541;DHT22;21650;48.840;9.162;2023-11-19T00:46:09;8.40;99.90
35541;DHT22;21650;48.840;9.162;2023-11-19T00:48:37;8.50;99.90
35541;DHT22;21650;48.840;9.162;2023-11-19T00:51:02;8.50;99.90
35541;DHT22;21650;48.840;9.162;2023-11-19T00:53:29;8.60;99.90
35541;DHT22;21650;48.840;9.162;2023-11-19T00:55:55;8.60;99.90
35541;DHT22;21650;48.840;9.162;2023-11-19T00:58:21;8.60;99.90
35541;DHT22;21650;48.840;9.162;2023-11-19T01:00:47;8.70;99.90
35541;DHT22;21650;48.840;9.162;2023-11-19T01:03:12;8.60;99.90
35541;DHT22;21650;48.840;9.162;2023-11-19T01:05:38;8.70;99.90
35541;DHT22;21650;48.840;9.162;2023-11-19T01:08:04;8.80;99.90
35541;DHT22;21650;48.840;9.162;2023-11-19T01:10:30;8.80;99.90
35541;DHT22;21650;48.840;9.162;2023-11-19T01:12:56;8.80;99.90
35541;DHT22;21650;48.840;9.162;2023-11-19T01:15:22;8.80;99.90
35541;DHT22;21650;48.840;9.162;2023-11-19T01:17:48;8.80;99.90
35541;DHT22;21650;48.840;9.162;2023-11-19T01:20:14;8.90;99.90
35541;DHT22;21650;48.840;9.162;2023-11-19T01:22:40;8.90;99.90
35541;DHT22;21650;48.840;9.162;2023-11-19T01:25:06;8.90;99.90
35541;DHT22;21650;48.840;9.162;2023-11-19T01:27:32;9.00;99.90
35541;DHT22;21650;48.840;9.162;2023-11-19T01:30:00;9.00;99.90
35541;DHT22;21650;48.840;9.162;2023-11-19T01:32:31;9.00;99.90
35541;DHT22;21650;48.840;9.162;2023-11-19T01:34:57;9.00;99.90
35541;DHT22;21650;48.840;9.162;2023-11-19T01:37:23;9.10;99.90
35541;DHT22;21650;48.840;9.162;2023-11-19T01:39:49;9.10;99.90
35541;DHT22;21650;48.840;9.162;2023-11-19T01:42:14;9.10;99.90
35541;DHT22;21650;48.840;9.162;2023-11-19T01:44:41;9.30;99.90
35541;DHT22;21650;48.840;9.162;2023-11-19T01:47:07;9.20;99.90
35541;DHT22;21650;48.840;9.162;2023-11-19T01:49:34;9.30;99.90
35541;DHT22;21650;48.840;9.162;2023-11-19T01:52:00;9.30;99.90
35541;DHT22;21650;48.840;9.162;2023-11-19T01:54:26;9.40;99.90
35541;DHT22;21650;48.840;9.162;2023-11-19T01:56:54;9.40;99.90
35541;DHT22;21650;48.840;9.162;2023-11-19T01:59:22;9.50;99.90
35541;DHT22;21650;48.840;9.162;2023-11-19T02:01:54;9.40;99.90
35541;DHT22;21650;48.840;9.162;2023-11-19T02:04:21;9.50;99.90
35541;DHT22;21650;48.840;9.162;2023-11-19T02:06:48;9.60;99.90
35541;DHT22;21650;48.840;9.162;2023-11-19T02:09:17;9.60;99.90
35541;DHT22;21650;48.840;9.162;2023-11-19T02:11:45;9.50;99.90
35541;DHT22;21650;48.840;9.162;2023-11-19T02:14:15;9.50;99.90
35541;DHT22;21650;48.840;9.162;2023-11-19T02:16:40;9.40;99.90
35541;DHT22;21650;48.840;9.162;2023-11-19T02:19:06;9.40;99.90
35541;DHT22;21650;48.840;9.162;2023-11-19T02:21:32;9.40;99.90
35541;DHT22;21650;48.840;9.162;2023-11-19T02:23:57;9.50;99.90
35541;DHT22;21650;48.840;9.162;2023-11-19T02:29:02;9.50;99.90
35541;DHT22;21650;48.840;9.162;2023-11-19T02:31:28;9.50;99.90
35541;DHT22;21650;48.840;9.162;2023-11-19T02:33:54;9.50;99.90
35541;DHT22;21650;48.840;9.162;2023-11-19T02:36:39;9.50;99.90
35541;DHT22;21650;48.840;9.162;2023-11-19T02:39:07;9.50;99.90
35541;DHT22;21650;48.840;9.162;2023-11-19T02:41:38;9.50;99.90
35541;DHT22;21650;48.840;9.162;2023-11-19T02:44:05;9.50;99.90
35541;DHT22;21650;48.840;9.162;2023-11-19T02:46:31;9.50;99.90
35541;DHT22;21650;48.840;9.162;2023-11-19T02:48:57;9.50;99.90
35541;DHT22;21650;48.840;9.162;2023-11-19T02:51:23;9.50;99.90
35541;DHT22;21650;48.840;9.162;2023-11-19T02:53:48;9.50;99.90
35541;DHT22;21650;48.840;9.162;2023-11-19T02:56:14;9.50;99.90
35541;DHT22;21650;48.840;9.162;2023-11-19T02:58:50;9.50;99.90
35541;DHT22;21650;48.840;9.162;2023-11-19T03:01:26;9.50;99.90
35541;DHT22;21650;48.840;9.162;2023-11-19T03:03:56;9.40;99.90
35541;DHT22;21650;48.840;9.162;2023-11-19T03:06:23;9.40;99.90
35541;DHT22;21650;48.840;9.162;2023-11-19T03:08:48;9.50;99.90
35541;DHT22;21650;48.840;9.162;2023-11-19T03:11:14;9.50;99.90
35541;DHT22;21650;48.840;9.162;2023-11-19T03:13:40;9.50;99.90
35541;DHT22;21650;48.840;9.162;2023-11-19T03:16:06;9.40;99.90
35541;DHT22;21650;48.840;9.162;2023-11-19T03:18:32;9.50;99.90
35541;DHT22;21650;48.840;9.162;2023-11-19T03:20:58;9.40;99.90
35541;DHT22;21650;48.840;9.162;2023-11-19T03:23:24;9.40;99.90
35541;DHT22;21650;48.840;9.162;2023-11-19T03:25:53;9.50;99.90
35541;DHT22;21650;48.840;9.162;2023-11-19T03:28:19;9.50;99.90
35541;DHT22;21650;48.840;9.162;2023-11-19T03:30:45;9.50;99.90
35541;DHT22;21650;48.840;9.162;2023-11-19T03:33:11;9.50;99.90
35541;DHT22;21650;48.840;9.162;2023-11-19T03:35:37;9.40;99.90
35541;DHT22;21650;48.840;9.162;2023-11-19T03:38:02;9.40;99.90
35541;DHT22;21650;48.840;9.162;2023-11-19T03:40:28;9.50;99.90
35541;DHT22;21650;48.840;9.162;2023-11-19T03:42:56;9.50;99.90
35541;DHT22;21650;48.840;9.162;2023-11-19T03:45:22;9.50;99.90
35541;DHT22;21650;48.840;9.162;2023-11-19T03:47:48;9.40;99.90
35541;DHT22;21650;48.840;9.162;2023-11-19T03:50:15;9.40;99.90
35541;DHT22;21650;48.840;9.162;2023-11-19T03:52:41;9.40;99.90
35541;DHT22;21650;48.840;9.162;2023-11-19T03:55:07;9.40;99.90
35541;DHT22;21650;48.840;9.162;2023-11-19T03:57:34;9.50;99.90
35541;DHT22;21650;48.840;9.162;2023-11-19T04:00:00;9.40;99.90
35541;DHT22;21650;48.840;9.162;2023-11-19T04:02:27;9.50;99.90
35541;DHT22;21650;48.840;9.162;2023-11-19T04:04:53;9.50;99.90
35541;DHT22;21650;48.840;9.162;2023-11-19T04:07:20;9.50;99.90
35541;DHT22;21650;48.840;9.162;2023-11-19T04:09:46;9.50;99.90
35541;DHT22;21650;48.840;9.162;2023-11-19T04:12:12;9.50;99.90
35541;DHT22;21650;48.840;9.162;2023-11-19T04:14:37;9.50;99.90
35541;DHT22;21650;48.840;9.162;2023-11-19T04:17:03;9.60;99.90
35541;DHT22;21650;48.840;9.162;2023-11-19T04:19:29;9.70;99.90
35541;DHT22;21650;48.840;9.162;2023-11-19T04:21:54;9.80;99.90
35541;DHT22;21650;48.840;9.162;2023-11-19T04:24:20;9.80;99.90
35541;DHT22;21650;48.840;9.162;2023-11-19T04:26:46;9.70;99.90
35541;DHT22;21650;48.840;9.162;2023-11-19T04:29:12;9.70;99.90
35541;DHT22;21650;48.840;9.162;2023-11-19T04:31:39;9.80;99.90
35541;DHT22;21650;48.840;9.162;2023-11-19T04:34:05;9.80;99.90
35541;DHT22;21650;48.840;9.162;2023-11-19T04:36:32;9.90;99.90
35541;DHT22;21650;48.840;9.162;2023-11-19T04:38:59;9.80;99.90
35541;DHT22;21650;48.840;9.162;2023-11-19T04:41:25;9.80;99.90
35541;DHT22;21650;48.840;9.162;2023-11-19T04:43:51;9.90;99.90
35541;DHT22;21650;48.840;9.162;2023-11-19T04:46:16;9.80;99.90
35541;DHT22;21650;48.840;9.162;2023-11-19T04:48:42;9.90;99.90
35541;DHT22;21650;48.840;9.162;2023-11-19T04:51:07;9.80;99.90
35541;DHT22;21650;48.840;9.162;2023-11-19T04:53:35;9.80;99.90
35541;DHT22;21650;48.840;9.162;2023-11-19T04:56:00;9.90;99.90
35541;DHT22;21650;48.840;9.162;2023-11-19T04:58:29;9.90;99.90
35541;DHT22;21650;48.840;9.162;2023-11-19T05:00:54;10.00;99.90
35541;DHT22;21650;48.840;9.162;2023-11-19T05:03:20;10.00;99.90
35541;DHT22;21650;48.840;9.162;2023-11-19T05:05:48;10.00;99.90
35541;DHT22;21650;48.840;9.162;2023-11-19T05:08:14;10.00;99.90
35541;DHT22;21650;48.840;9.162;2023-11-19T05:10:39;10.20;99.90
35541;DHT22;21650;48.840;9.162;2023-11-19T05:13:05;10.20;99.90
35541;DHT22;21650;48.840;9.162;2023-11-19T05:15:31;10.30;99.90
35541;DHT22;21650;48.840;9.162;2023-11-19T05:17:56;10.20;99.90
35541;DHT22;21650;48.840;9.162;2023-11-19T05:20:22;10.30;99.90
35541;DHT22;21650;48.840;9.162;2023-11-19T05:22:49;10.40;99.90
35541;DHT22;21650;48.840;9.162;2023-11-19T05:25:18;10.40;99.90
35541;DHT22;21650;48.840;9.162;2023-11-19T05:27:45;10.40;99.90
35541;DHT22;21650;48.840;9.162;2023-11-19T05:30:11;10.50;99.90
35541;DHT22;21650;48.840;9.162;2023-11-19T05:32:37;10.50;99.90
35541;DHT22;21650;48.840;9.162;2023-11-19T05:35:03;10.60;99.90
35541;DHT22;21650;48.840;9.162;2023-11-19T05:37:28;10.50;99.90
35541;DHT22;21650;48.840;9.162;2023-11-19T05:39:54;10.50;99.90
35541;DHT22;21650;48.840;9.162;2023-11-19T05:42:20;10.50;99.90
35541;DHT22;21650;48.840;9.162;2023-11-19T05:44:45;10.40;99.90
35541;DHT22;21650;48.840;9.162;2023-11-19T05:47:11;10.40;99.90
35541;DHT22;21650;48.840;9.162;2023-11-19T05:49:37;10.40;99.90
35541;DHT22;21650;48.840;9.162;2023-11-19T05:52:03;10.50;99.90
35541;DHT22;21650;48.840;9.162;2023-11-19T05:54:29;10.40;99.90
35541;DHT22;21650;48.840;9.162;2023-11-19T05:56:55;10.60;99.90
35541;DHT22;21650;48.840;9.162;2023-11-19T05:59:22;10.50;99.90
35541;DHT22;21650;48.840;9.162;2023-11-19T06:01:48;10.50;99.90
35541;DHT22;21650;48.840;9.162;2023-11-19T06:04:14;10.50;99.90
35541;DHT22;21650;48.840;9.162;2023-11-19T06:06:39;10.50;99.90
35541;DHT22;21650;48.840;9.162;2023-11-19T06:09:05;10.50;99.90
35541;DHT22;21650;48.840;9.162;2023-11-19T06:11:35;10.50;99.90
35541;DHT22;21650;48.840;9.162;2023-11-19T06:14:01;10.50;99.90
35541;DHT22;21650;48.840;9.162;2023-11-19T06:16:27;10.50;99.90
35541;DHT22;21650;48.840;9.162;2023-11-19T06:18:53;10.40;99.90
35541;DHT22;21650;48.840;9.162;2023-11-19T06:21:19;10.50;99.90
35541;DHT22;21650;48.840;9.162;2023-11-19T06:23:44;10.50;99.90
35541;DHT22;21650;48.840;9.162;2023-11-19T06:26:10;10.50;99.90
35541;DHT22;21650;48.840;9.162;2023-11-19T06:28:36;10.50;99.90
35541;DHT22;21650;48.840;9.162;2023-11-19T06:31:02;10.50;99.90
35541;DHT22;21650;48.840;9.162;2023-11-19T06:33:28;10.50;99.90
35541;DHT22;21650;48.840;9.162;2023-11-19T06:35:54;10.60;99.90
35541;DHT22;21650;48.840;9.162;2023-11-19T06:38:20;10.60;99.90
35541;DHT22;21650;48.840;9.162;2023-11-19T06:40:45;10.50;99.90
35541;DHT22;21650;48.840;9.162;2023-11-19T06:43:11;10.70;99.90
35541;DHT22;21650;48.840;9.162;2023-11-19T06:45:37;10.60;99.90
35541;DHT22;21650;48.840;9.162;2023-11-19T06:48:03;10.70;99.90
35541;DHT22;21650;48.840;9.162;2023-11-19T06:50:33;10.70;99.90
35541;DHT22;21650;48.840;9.162;2023-11-19T06:52:59;10.60;99.90
35541;DHT22;21650;48.840;9.162;2023-11-19T06:55:25;10.70;99.90
35541;DHT22;21650;48.840;9.162;2023-11-19T06:57:51;10.80;99.90
35541;DHT22;21650;48.840;9.162;2023-11-19T07:00:17;10.70;99.90
35541;DHT22;21650;48.840;9.162;2023-11-19T07:02:43;10.80;99.90
35541;DHT22;21650;48.840;9.162;2023-11-19T07:05:09;10.70;99.90
35541;DHT22;21650;48.840;9.162;2023-11-19T07:07:35;10.80;99.90
35541;DHT22;21650;48.840;9.162;2023-11-19T07:10:01;10.70;99.90
35541;DHT22;21650;48.840;9.162;2023-11-19T07:12:28;10.70;99.90
35541;DHT22;21650;48.840;9.162;2023-11-19T07:14:53;10.70;99.90
35541;DHT22;21650;48.840;9.162;2023-11-19T07:17:20;10.80;99.90
35541;DHT22;21650;48.840;9.162;2023-11-19T07:19:52;10.70;99.90
35541;DHT22;21650;48.840;9.162;2023-11-19T07:22:18;10.80;99.90
35541;DHT22;21650;48.840;9.162;2023-11-19T07:24:43;10.80;99.90
35541;DHT22;21650;48.840;9.162;2023-11-19T07:27:09;10.80;99.90
35541;DHT22;21650;48.840;9.162;2023-11-19T07:29:35;10.80;99.90
35541;DHT22;21650;48.840;9.162;2023-11-19T07:32:01;10.80;99.90
35541;DHT22;21650;48.840;9.162;2023-11-19T07:34:30;10.80;99.90
35541;DHT22;21650;48.840;9.162;2023-11-19T07:36:56;10.80;99.90
35541;DHT22;21650;48.840;9.162;2023-11-19T07:39:25;10.90;99.90
35541;DHT22;21650;48.840;9.162;2023-11-19T07:41:50;10.80;99.90
35541;DHT22;21650;48.840;9.162;2023-11-19T07:44:16;10.80;99.90
35541;DHT22;21650;48.840;9.162;2023-11-19T07:46:41;10.90;99.90
35541;DHT22;21650;48.840;9.162;2023-11-19T07:49:10;10.80;99.90
35541;DHT22;21650;48.840;9.162;2023-11-19T07:51:36;11.00;99.90
35541;DHT22;21650;48.840;9.162;2023-11-19T07:54:02;11.00;99.90
35541;DHT22;21650;48.840;9.162;2023-11-19T07:56:27;10.90;99.90
35541;DHT22;21650;48.840;9.162;2023-11-19T07:58:53;10.90;99.90
35541;DHT22;21650;48.840;9.162;2023-11-19T08:01:18;10.90;99.90
35541;DHT22;21650;48.840;9.162;2023-11-19T08:03:44;10.90;99.90
35541;DHT22;21650;48.840;9.162;2023-11-19T08:06:10;10.90;99.90
35541;DHT22;21650;48.840;9.162;2023-11-19T08:08:36;11.00;99.90
35541;DHT22;21650;48.840;9.162;2023-11-19T08:11:03;11.10;99.90
35541;DHT22;21650;48.840;9.162;2023-11-19T08:13:30;11.10;99.90
35541;DHT22;21650;48.840;9.162;2023-11-19T08:15:57;11.10;99.90
35541;DHT22;21650;48.840;9.162;2023-11-19T08:18:24;11.10;99.90
35541;DHT22;21650;48.840;9.162;2023-11-19T08:20:49;11.20;99.90
35541;DHT22;21650;48.840;9.162;2023-11-19T08:23:18;11.20;99.90
35541;DHT22;21650;48.840;9.162;2023-11-19T08:25:44;11.30;99.90
35541;DHT22;21650;48.840;9.162;2023-11-19T08:28:09;11.40;99.90
35541;DHT22;21650;48.840;9.162;2023-11-19T08:30:35;11.40;99.90
35541;DHT22;21650;48.840;9.162;2023-11-19T08:33:01;11.50;99.90
35541;DHT22;21650;48.840;9.162;2023-11-19T08:35:28;11.60;99.90
35541;DHT22;21650;48.840;9.162;2023-11-19T08:37:54;11.70;99.90
35541;DHT22;21650;48.840;9.162;2023-11-19T08:40:20;11.70;99.90
35541;DHT22;21650;48.840;9.162;2023-11-19T08:42:45;11.80;99.90
35541;DHT22;21650;48.840;9.162;2023-11-19T08:45:11;11.90;99.90
35541;DHT22;21650;48.840;9.162;2023-11-19T08:47:37;12.00;99.90
35541;DHT22;21650;48.840;9.162;2023-11-19T08:50:03;11.90;99.90
35541;DHT22;21650;48.840;9.162;2023-11-19T08:52:30;11.90;99.90
35541;DHT22;21650;48.840;9.162;2023-11-19T08:54:55;12.00;99.90
35541;DHT22;21650;48.840;9.162;2023-11-19T08:57:21;12.10;99.90
35541;DHT22;21650;48.840;9.162;2023-11-19T08:59:47;12.10;99.90
35541;DHT22;21650;48.840;9.162;2023-11-19T09:02:12;12.20;99.90
35541;DHT22;21650;48.840;9.162;2023-11-19T09:04:38;12.10;99.90
35541;DHT22;21650;48.840;9.162;2023-11-19T09:07:04;12.00;99.90
35541;DHT22;21650;48.840;9.162;2023-11-19T09:09:29;12.00;99.90
35541;DHT22;21650;48.840;9.162;2023-11-19T09:11:55;12.10;99.90
35541;DHT22;21650;48.840;9.162;2023-11-19T09:14:21;12.20;99.90
35541;DHT22;21650;48.840;9.162;2023-11-19T09:16:51;12.30;99.90
35541;DHT22;21650;48.840;9.162;2023-11-19T09:19:17;12.40;99.90
35541;DHT22;21650;48.840;9.162;2023-11-19T09:21:43;12.60;99.90
35541;DHT22;21650;48.840;9.162;2023-11-19T09:24:09;12.70;99.90
35541;DHT22;21650;48.840;9.162;2023-11-19T09:26:34;12.60;99.90
35541;DHT22;21650;48.840;9.162;2023-11-19T09:29:01;12.70;99.90
35541;DHT22;21650;48.840;9.162;2023-11-19T09:31:27;12.70;99.90
35541;DHT22;21650;48.840;9.162;2023-11-19T09:33:53;12.60;99.90
35541;DHT22;21650;48.840;9.162;2023-11-19T09:36:18;12.60;99.90
35541;DHT22;21650;48.840;9.162;2023-11-19T09:38:44;12.70;99.90
35541;DHT22;21650;48.840;9.162;2023-11-19T09:41:10;12.50;99.90
35541;DHT22;21650;48.840;9.162;2023-11-19T09:43:42;12.50;99.90
35541;DHT22;21650;48.840;9.162;2023-11-19T09:46:13;12.50;99.90
35541;DHT22;21650;48.840;9.162;2023-11-19T09:48:41;12.50;99.90
35541;DHT22;21650;48.840;9.162;2023-11-19T09:51:10;12.60;99.90
35541;DHT22;21650;48.840;9.162;2023-11-19T09:53:37;12.60;99.90
35541;DHT22;21650;48.840;9.162;2023-11-19T09:56:06;12.70;99.90
35541;DHT22;21650;48.840;9.162;2023-11-19T09:58:33;12.70;99.90
35541;DHT22;21650;48.840;9.162;2023-11-19T10:00:59;12.70;99.90
35541;DHT22;21650;48.840;9.162;2023-11-19T10:03:27;12.80;99.90
35541;DHT22;21650;48.840;9.162;2023-11-19T10:05:55;12.80;99.90
35541;DHT22;21650;48.840;9.162;2023-11-19T10:08:21;12.80;99.90
35541;DHT22;21650;48.840;9.162;2023-11-19T10:10:47;12.90;99.90
35541;DHT22;21650;48.840;9.162;2023-11-19T10:13:13;12.80;99.90
35541;DHT22;21650;48.840;9.162;2023-11-19T10:15:40;13.00;99.90
35541;DHT22;21650;48.840;9.162;2023-11-19T10:18:07;13.00;99.90
35541;DHT22;21650;48.840;9.162;2023-11-19T10:20:40;13.10;99.90
35541;DHT22;21650;48.840;9.162;2023-11-19T10:23:07;13.20;99.90
35541;DHT22;21650;48.840;9.162;2023-11-19T10:25:33;13.40;99.90
35541;DHT22;21650;48.840;9.162;2023-11-19T10:27:59;13.60;99.90
35541;DHT22;21650;48.840;9.162;2023-11-19T10:30:26;14.00;99.90
35541;DHT22;21650;48.840;9.162;2023-11-19T10:35:32;14.00;99.90
35541;DHT22;21650;48.840;9.162;2023-11-19T10:37:59;14.20;99.90
35541;DHT22;21650;48.840;9.162;2023-11-19T10:40:37;14.30;99.90
35541;DHT22;21650;48.840;9.162;2023-11-19T10:43:05;14.30;99.90
35541;DHT22;21650;48.840;9.162;2023-11-19T10:45:33;14.40;99.90
35541;DHT22;21650;48.840;9.162;2023-11-19T10:47:59;14.50;99.90
35541;DHT22;21650;48.840;9.162;2023-11-19T10:50:26;14.50;99.90
35541;DHT22;21650;48.840;9.162;2023-11-19T10:52:56;14.70;99.90
35541;DHT22;21650;48.840;9.162;2023-11-19T10:55:28;14.70;99.90
35541;DHT22;21650;48.840;9.162;2023-11-19T10:58:00;14.60;99.90
35541;DHT22;21650;48.840;9.162;2023-11-19T11:00:33;14.50;99.90
35541;DHT22;21650;48.840;9.162;2023-11-19T11:03:05;14.80;99.90
35541;DHT22;21650;48.840;9.162;2023-11-19T11:05:34;14.70;99.90
35541;DHT22;21650;48.840;9.162;2023-11-19T11:08:00;14.70;99.90
35541;DHT22;21650;48.840;9.162;2023-11-19T11:10:28;14.80;99.90
35541;DHT22;21650;48.840;9.162;2023-11-19T11:12:59;14.60;99.90
35541;DHT22;21650;48.840;9.162;2023-11-19T11:15:29;14.60;99.90
35541;DHT22;21650;48.840;9.162;2023-11-19T11:17:59;14.60;99.90
35541;DHT22;21650;48.840;9.162;2023-11-19T11:20:30;14.60;99.90
35541;DHT22;21650;48.840;9.162;2023-11-19T11:23:37;14.60;99.90
35541;DHT22;21650;48.840;9.162;2023-11-19T11:28:56;14.60;99.90
35541;DHT22;21650;48.840;9.162;2023-11-19T11:31:59;14.30;99.90
35541;DHT22;21650;48.840;9.162;2023-11-19T11:34:45;14.30;99.90
35541;DHT22;21650;48.840;9.162;2023-11-19T11:39:46;14.30;99.90
35541;DHT22;21650;48.840;9.162;2023-11-19T11:45:05;14.30;99.90
35541;DHT22;21650;48.840;9.162;2023-11-19T11:50:09;14.50;99.90
35541;DHT22;21650;48.840;9.162;2023-11-19T11:55:35;14.40;99.90
35541;DHT22;21650;48.840;9.162;2023-11-19T11:58:05;14.40;99.90
35541;DHT22;21650;48.840;9.162;2023-11-19T12:00:32;14.50;99.90
35541;DHT22;21650;48.840;9.162;2023-11-19T12:03:01;14.60;99.90
35541;DHT22;21650;48.840;9.162;2023-11-19T12:05:28;14.70;99.90
35541;DHT22;21650;48.840;9.162;2023-11-19T12:08:04;14.90;99.90
35541;DHT22;21650;48.840;9.162;2023-11-19T12:10:45;15.00;99.90
35541;DHT22;21650;48.840;9.162;2023-11-19T12:13:13;15.00;99.90
35541;DHT22;21650;48.840;9.162;2023-11-19T12:18:28;15.00;99.90
35541;DHT22;21650;48.840;9.162;2023-11-19T12:20:54;15.00;99.90
35541;DHT22;21650;48.840;9.162;2023-11-19T12:23:21;15.10;99.90
35541;DHT22;21650;48.840;9.162;2023-11-19T12:25:46;15.10;99.90
35541;DHT22;21650;48.840;9.162;2023-11-19T12:28:13;15.10;99.90
35541;DHT22;21650;48.840;9.162;2023-11-19T12:30:38;15.10;99.90
35541;DHT22;21650;48.840;9.162;2023-11-19T12:33:11;15.00;99.90
35541;DHT22;21650;48.840;9.162;2023-11-19T12:35:45;15.00;99.90
35541;DHT22;21650;48.840;9.162;2023-11-19T12:38:21;15.10;99.90
35541;DHT22;21650;48.840;9.162;2023-11-19T12:40:47;15.10;99.90
35541;DHT22;21650;48.840;9.162;2023-11-19T12:43:27;14.90;99.90
35541;DHT22;21650;48.840;9.162;2023-11-19T12:45:52;15.10;99.90
35541;DHT22;21650;48.840;9.162;2023-11-19T12:48:18;15.10;99.90
35541;DHT22;21650;48.840;9.162;2023-11-19T12:50:50;15.10;99.90
35541;DHT22;21650;48.840;9.162;2023-11-19T12:53:17;15.10;99.90
35541;DHT22;21650;48.840;9.162;2023-11-19T12:55:43;15.20;99.90
35541;DHT22;21650;48.840;9.162;2023-11-19T12:58:09;15.10;99.90
35541;DHT22;21650;48.840;9.162;2023-11-19T13:00:34;15.20;99.90
35541;DHT22;21650;48.840;9.162;2023-11-19T13:03:00;15.20;99.90
35541;DHT22;21650;48.840;9.162;2023-11-19T13:05:31;15.20;99.90
35541;DHT22;21650;48.840;9.162;2023-11-19T13:08:05;15.00;99.90
35541;DHT22;21650;48.840;9.162;2023-11-19T13:10:32;15.10;99.90
35541;DHT22;21650;48.840;9.162;2023-11-19T13:13:05;15.10;99.90
35541;DHT22;21650;48.840;9.162;2023-11-19T13:15:32;15.10;99.90
35541;DHT22;21650;48.840;9.162;2023-11-19T13:17:58;15.10;99.90
35541;DHT22;21650;48.840;9.162;2023-11-19T13:20:24;15.10;99.90
35541;DHT22;21650;48.840;9.162;2023-11-19T13:22:57;15.10;99.90
35541;DHT22;21650;48.840;9.162;2023-11-19T13:25:23;15.00;99.90
35541;DHT22;21650;48.840;9.162;2023-11-19T13:27:49;15.00;99.90
35541;DHT22;21650;48.840;9.162;2023-11-19T13:30:15;14.80;99.90
35541;DHT22;21650;48.840;9.162;2023-11-19T13:32:41;14.80;99.90
35541;DHT22;21650;48.840;9.162;2023-11-19T13:35:06;14.80;99.90
35541;DHT22;21650;48.840;9.162;2023-11-19T13:37:34;14.70;99.90
35541;DHT22;21650;48.840;9.162;2023-11-19T13:40:00;14.60;99.90
35541;DHT22;21650;48.840;9.162;2023-11-19T13:42:26;14.80;99.90
35541;DHT22;21650;48.840;9.162;2023-11-19T13:44:52;14.80;99.90
35541;DHT22;21650;48.840;9.162;2023-11-19T13:47:18;14.80;99.90
35541;DHT22;21650;48.840;9.162;2023-11-19T13:49:44;14.70;99.90
35541;DHT22;21650;48.840;9.162;2023-11-19T13:52:10;14.80;99.90
35541;DHT22;21650;48.840;9.162;2023-11-19T13:54:37;14.80;99.90
35541;DHT22;21650;48.840;9.162;2023-11-19T13:57:03;14.70;99.90
35541;DHT22;21650;48.840;9.162;2023-11-19T13:59:32;14.80;99.90
35541;DHT22;21650;48.840;9.162;2023-11-19T14:01:58;14.60;99.90
35541;DHT22;21650;48.840;9.162;2023-11-19T14:04:24;14.70;99.90
35541;DHT22;21650;48.840;9.162;2023-11-19T14:06:50;14.80;99.90
35541;DHT22;21650;48.840;9.162;2023-11-19T14:09:16;14.70;99.90
35541;DHT22;21650;48.840;9.162;2023-11-19T14:11:43;14.70;99.90
35541;DHT22;21650;48.840;9.162;2023-11-19T14:14:09;14.60;99.90
35541;DHT22;21650;48.840;9.162;2023-11-19T14:16:34;14.60;99.90
35541;DHT22;21650;48.840;9.162;2023-11-19T14:19:00;14.60;99.90
35541;DHT22;21650;48.840;9.162;2023-11-19T14:21:26;14.50;99.90
35541;DHT22;21650;48.840;9.162;2023-11-19T14:23:55;14.50;99.90
35541;DHT22;21650;48.840;9.162;2023-11-19T14:26:21;14.50;99.90
35541;DHT22;21650;48.840;9.162;2023-11-19T14:28:47;14.40;99.90
35541;DHT22;21650;48.840;9.162;2023-11-19T14:31:12;14.50;99.90
35541;DHT22;21650;48.840;9.162;2023-11-19T14:33:38;14.50;99.90
35541;DHT22;21650;48.840;9.162;2023-11-19T14:36:04;14.50;99.90
35541;DHT22;21650;48.840;9.162;2023-11-19T14:38:32;14.40;99.90
35541;DHT22;21650;48.840;9.162;2023-11-19T14:40:58;14.40;99.90
35541;DHT22;21650;48.840;9.162;2023-11-19T14:43:25;14.30;99.90
35541;DHT22;21650;48.840;9.162;2023-11-19T14:45:51;14.30;99.90
35541;DHT22;21650;48.840;9.162;2023-11-19T14:48:17;14.20;99.90
35541;DHT22;21650;48.840;9.162;2023-11-19T14:50:44;14.10;99.90
35541;DHT22;21650;48.840;9.162;2023-11-19T14:53:10;13.90;99.90
35541;DHT22;21650;48.840;9.162;2023-11-19T14:55:36;14.00;99.90
35541;DHT22;21650;48.840;9.162;2023-11-19T14:58:01;14.00;99.90
35541;DHT22;21650;48.840;9.162;2023-11-19T15:00:27;14.00;99.90
35541;DHT22;21650;48.840;9.162;2023-11-19T15:02:53;13.80;99.90
35541;DHT22;21650;48.840;9.162;2023-11-19T15:05:18;13.70;99.90
35541;DHT22;21650;48.840;9.162;2023-11-19T15:07:45;13.70;99.90
35541;DHT22;21650;48.840;9.162;2023-11-19T15:10:10;13.80;99.90
35541;DHT22;21650;48.840;9.162;2023-11-19T15:12:38;13.80;99.90
35541;DHT22;21650;48.840;9.162;2023-11-19T15:15:07;13.70;99.90
35541;DHT22;21650;48.840;9.162;2023-11-19T15:17:33;13.70;99.90
35541;DHT22;21650;48.840;9.162;2023-11-19T15:19:59;13.60;99.90
35541;DHT22;21650;48.840;9.162;2023-11-19T15:22:25;13.40;99.90
35541;DHT22;21650;48.840;9.162;2023-11-19T15:24:50;13.60;99.90
35541;DHT22;21650;48.840;9.162;2023-11-19T15:27:16;13.70;99.90
35541;DHT22;21650;48.840;9.162;2023-11-19T15:29:43;13.60;99.90
35541;DHT22;21650;48.840;9.162;2023-11-19T15:32:08;13.60;99.90
35541;DHT22;21650;48.840;9.162;2023-11-19T15:34:34;13.60;99.90
35541;DHT22;21650;48.840;9.162;2023-11-19T15:37:03;13.50;99.90
35541;DHT22;21650;48.840;9.162;2023-11-19T15:39:29;13.50;99.90
35541;DHT22;21650;48.840;9.162;2023-11-19T15:41:55;13.50;99.90
35541;DHT22;21650;48.840;9.162;2023-11-19T15:44:22;13.50;99.90
35541;DHT22;21650;48.840;9.162;2023-11-19T15:46:47;13.40;99.90
35541;DHT22;21650;48.840;9.162;2023-11-19T15:49:13;13.20;99.90
35541;DHT22;21650;48.840;9.162;2023-11-19T15:51:39;13.20;99.90
35541;DHT22;21650;48.840;9.162;2023-11-19T15:54:04;13.10;99.90
35541;DHT22;21650;48.840;9.162;2023-11-19T15:56:30;13.10;99.90